createdAt,value
2018-03-21T00:02:26.765Z,74.80
2018-03-21T00:04:54.228Z,75.60
2018-03-21T00:07:22.457Z,75.00
2018-03-21T00:09:49.931Z,74.90
2018-03-21T00:12:17.388Z,75.20
2018-03-21T00:14:44.866Z,75.10
2018-03-21T00:17:12.318Z,75.30
2018-03-21T00:19:39.787Z,74.40
2018-03-21T00:22:07.257Z,75.00
2018-03-21T00:24:35.483Z,75.30
2018-03-21T00:27:02.940Z,75.20
2018-03-21T00:29:30.408Z,75.30
2018-03-21T00:31:57.867Z,74.90
2018-03-21T00:34:25.344Z,74.50
2018-03-21T00:36:52.793Z,74.80
2018-03-21T00:39:20.259Z,74.50
2018-03-21T00:41:47.708Z,73.80
2018-03-21T00:44:15.178Z,74.60
2018-03-21T00:46:42.629Z,75.20
2018-03-21T00:49:10.104Z,74.20
2018-03-21T00:51:38.327Z,75.30
2018-03-21T00:54:05.796Z,75.20
2018-03-21T00:56:33.257Z,74.70
2018-03-21T00:59:00.719Z,74.70
2018-03-21T01:01:28.177Z,74.20
2018-03-21T01:03:55.654Z,72.90
2018-03-21T01:06:23.113Z,73.10
2018-03-21T01:08:50.581Z,73.40
2018-03-21T01:11:18.812Z,73.60
2018-03-21T01:13:46.275Z,73.50
2018-03-21T01:16:13.738Z,73.60
2018-03-21T01:18:41.216Z,73.20
2018-03-21T01:21:08.669Z,73.80
2018-03-21T01:23:36.148Z,72.60
2018-03-21T01:26:04.383Z,73.70
2018-03-21T01:28:31.856Z,73.70
2018-03-21T01:30:59.324Z,73.70
2018-03-21T01:33:26.791Z,73.00
2018-03-21T01:35:55.032Z,73.80
2018-03-21T01:38:22.493Z,73.80
2018-03-21T01:40:49.965Z,73.00
2018-03-21T01:43:17.422Z,73.40
2018-03-21T01:45:44.939Z,72.50
2018-03-21T01:48:12.392Z,72.70
2018-03-21T01:50:39.865Z,72.80
2018-03-21T01:53:10.279Z,72.60
2018-03-21T01:55:37.769Z,72.50
2018-03-21T01:58:05.216Z,72.90
2018-03-21T02:00:32.687Z,72.40
2018-03-21T02:03:02.861Z,72.80
2018-03-21T02:05:30.331Z,71.50
2018-03-21T02:07:57.793Z,72.70
2018-03-21T02:10:25.272Z,71.70
2018-03-21T02:12:52.740Z,71.60
2018-03-21T02:15:20.242Z,71.10
2018-03-21T02:17:47.696Z,72.00
2018-03-21T02:20:15.160Z,72.00
2018-03-21T02:22:42.628Z,70.90
2018-03-21T02:25:10.099Z,71.50
2018-03-21T02:27:37.556Z,71.00
2018-03-21T02:30:05.025Z,70.40
2018-03-21T02:32:32.488Z,70.50
2018-03-21T02:34:59.952Z,70.60
2018-03-21T02:37:27.411Z,71.10
2018-03-21T02:39:54.894Z,71.20
2018-03-21T02:42:23.113Z,71.40
2018-03-21T02:44:50.580Z,70.70
2018-03-21T02:47:18.047Z,70.30
2018-03-21T02:49:45.521Z,71.20
2018-03-21T02:52:12.977Z,70.80
2018-03-21T02:54:40.443Z,71.10
2018-03-21T02:57:07.904Z,70.30
2018-03-21T02:59:35.379Z,71.60
2018-03-21T03:02:03.606Z,71.20
2018-03-21T03:04:31.089Z,70.50
2018-03-21T03:06:58.545Z,69.60
2018-03-21T03:09:26.008Z,68.80
2018-03-21T03:11:53.473Z,68.90
2018-03-21T03:14:21.700Z,69.30
2018-03-21T03:16:49.173Z,69.20
2018-03-21T03:19:16.635Z,68.20
2018-03-21T03:21:44.111Z,68.60
2018-03-21T03:24:11.565Z,69.30
2018-03-21T03:26:39.040Z,68.30
2018-03-21T03:29:06.494Z,69.40
2018-03-21T03:31:33.965Z,67.80
2018-03-21T03:34:02.201Z,68.30
2018-03-21T03:36:29.664Z,68.20
2018-03-21T03:38:57.120Z,68.20
2018-03-21T03:41:24.594Z,69.10
2018-03-21T03:43:52.040Z,68.50
2018-03-21T03:46:19.499Z,69.00
2018-03-21T03:48:46.960Z,69.50
2018-03-21T03:51:14.433Z,70.10
2018-03-21T03:53:42.665Z,71.20
2018-03-21T03:56:10.140Z,70.40
2018-03-21T03:58:37.591Z,69.50
2018-03-21T04:01:05.059Z,70.40
2018-03-21T04:03:32.513Z,70.40
2018-03-21T04:05:59.991Z,70.70
2018-03-21T04:08:27.456Z,71.10
2018-03-21T04:10:55.686Z,69.00
2018-03-21T04:13:23.145Z,69.00
2018-03-21T04:15:50.623Z,68.40
2018-03-21T04:18:18.073Z,68.10
2018-03-21T04:20:45.548Z,67.40
2018-03-21T04:23:13.004Z,67.90
2018-03-21T04:25:40.486Z,67.80
2018-03-21T04:28:08.710Z,69.40
2018-03-21T04:30:36.186Z,69.30
2018-03-21T04:33:03.659Z,69.30
2018-03-21T04:35:31.136Z,69.70
2018-03-21T04:37:59.363Z,69.10
2018-03-21T04:40:26.840Z,69.10
2018-03-21T04:42:54.303Z,70.20
2018-03-21T04:45:21.764Z,70.10
2018-03-21T04:47:49.259Z,70.40
2018-03-21T04:50:16.718Z,70.30
2018-03-21T04:52:44.188Z,70.60
2018-03-21T04:55:11.660Z,69.70
2018-03-21T04:57:39.140Z,70.00
2018-03-21T05:00:06.597Z,69.40
2018-03-21T05:02:34.076Z,69.90
2018-03-21T05:05:02.308Z,70.80
2018-03-21T05:07:29.780Z,70.90
2018-03-21T05:09:57.237Z,71.30
2018-03-21T05:12:24.823Z,70.50
2018-03-21T05:14:53.061Z,70.70
2018-03-21T05:17:20.536Z,70.60
2018-03-21T05:19:48.008Z,71.30
2018-03-21T05:22:15.473Z,72.00
2018-03-21T05:24:43.816Z,71.50
2018-03-21T05:27:11.292Z,71.40
2018-03-21T05:29:38.752Z,70.90
2018-03-21T05:32:06.234Z,69.10
2018-03-21T05:34:34.448Z,70.50
2018-03-21T05:37:01.922Z,70.50
2018-03-21T05:39:29.376Z,70.10
2018-03-21T05:41:56.851Z,70.60
2018-03-21T05:44:24.322Z,69.90
2018-03-21T05:46:51.796Z,69.00
2018-03-21T05:49:20.029Z,70.80
2018-03-21T05:51:47.492Z,70.80
2018-03-21T05:54:14.956Z,71.40
2018-03-21T05:56:42.428Z,70.30
2018-03-21T05:59:09.888Z,70.40
2018-03-21T06:01:37.352Z,69.40
2018-03-21T06:04:05.573Z,69.20
2018-03-21T06:06:33.051Z,69.10
2018-03-21T06:09:00.516Z,69.70
2018-03-21T06:11:27.975Z,69.10
2018-03-21T06:13:55.458Z,69.30
2018-03-21T06:16:23.707Z,67.40
2018-03-21T06:21:25.066Z,66.20
2018-03-21T06:23:52.532Z,64.90
2018-03-21T06:26:20.005Z,64.10
2018-03-21T06:28:47.495Z,64.20
2018-03-21T06:31:14.963Z,61.70
2018-03-21T06:33:42.447Z,63.30
2018-03-21T06:36:09.910Z,60.20
2018-03-21T06:38:37.372Z,58.30
2018-03-21T06:41:04.829Z,58.80
2018-03-21T06:43:32.306Z,57.20
2018-03-21T06:45:59.760Z,55.90
2018-03-21T06:48:27.224Z,55.50
2018-03-21T06:50:54.671Z,55.50
2018-03-21T06:53:22.138Z,55.50
2018-03-21T06:55:49.584Z,54.20
2018-03-21T06:58:17.047Z,54.10
2018-03-21T07:00:44.498Z,54.60
2018-03-21T07:03:11.960Z,53.00
2018-03-21T07:05:39.412Z,53.50
2018-03-21T07:08:06.875Z,53.30
2018-03-21T07:10:34.320Z,52.20
2018-03-21T07:13:01.781Z,52.50
2018-03-21T07:15:41.237Z,53.10
2018-03-21T07:18:08.704Z,52.80
2018-03-21T07:20:36.932Z,51.30
2018-03-21T07:23:04.411Z,51.30
2018-03-21T07:25:32.619Z,50.20
2018-03-21T07:28:00.848Z,49.90
2018-03-21T07:30:28.311Z,49.80
2018-03-21T07:32:56.543Z,50.20
2018-03-21T07:35:23.992Z,50.20
2018-03-21T07:37:51.470Z,49.90
2018-03-21T07:40:18.924Z,49.50
2018-03-21T07:42:46.387Z,49.20
2018-03-21T07:45:13.848Z,50.10
2018-03-21T07:47:41.316Z,49.10
2018-03-21T07:50:08.772Z,48.10
2018-03-21T07:52:36.230Z,47.90
2018-03-21T07:55:03.684Z,49.10
2018-03-21T07:57:31.146Z,49.70
2018-03-21T07:59:58.615Z,48.00
2018-03-21T08:02:26.086Z,49.00
2018-03-21T08:04:53.543Z,49.30
2018-03-21T08:07:20.992Z,49.20
2018-03-21T08:09:48.465Z,48.80
2018-03-21T08:12:15.924Z,45.30
2018-03-21T08:14:43.398Z,43.70
2018-03-21T08:17:11.613Z,36.30
2018-03-21T08:19:39.136Z,36.30
2018-03-21T08:22:07.371Z,33.70
2018-03-21T08:24:34.838Z,33.70
2018-03-21T08:27:02.288Z,29.30
2018-03-21T08:29:29.776Z,27.80
2018-03-21T08:31:58.008Z,28.00
2018-03-21T08:34:25.523Z,28.00
2018-03-21T08:36:52.967Z,28.00
2018-03-21T08:39:20.445Z,24.90
2018-03-21T08:41:47.928Z,24.70
2018-03-21T08:44:15.398Z,25.60
2018-03-21T08:46:42.857Z,23.90
2018-03-21T08:49:10.328Z,24.70
2018-03-21T08:51:37.784Z,25.90
2018-03-21T08:54:05.245Z,24.20
2018-03-21T08:56:32.699Z,24.30
2018-03-21T08:59:00.165Z,24.60
2018-03-21T09:01:27.671Z,21.90
2018-03-21T09:03:55.091Z,22.80
2018-03-21T09:06:23.131Z,24.60
2018-03-21T09:08:50.606Z,24.80
2018-03-21T09:11:18.059Z,22.70
2018-03-21T09:13:45.517Z,25.90
2018-03-21T09:16:12.987Z,26.00
2018-03-21T09:18:40.440Z,24.70
2018-03-21T09:21:07.929Z,24.60
2018-03-21T09:23:36.150Z,24.10
2018-03-21T09:26:03.650Z,24.00
2018-03-21T09:28:31.105Z,22.20
2018-03-21T09:30:59.347Z,22.00
2018-03-21T09:33:26.803Z,21.80
2018-03-21T09:35:54.276Z,23.10
2018-03-21T09:38:21.741Z,23.70
2018-03-21T09:40:49.223Z,22.60
2018-03-21T09:43:17.452Z,22.80
2018-03-21T09:45:44.944Z,22.80
2018-03-21T09:48:13.172Z,22.30
2018-03-21T09:50:40.674Z,22.20
2018-03-21T09:53:08.125Z,22.10
2018-03-21T09:55:35.599Z,21.60
2018-03-21T09:58:03.063Z,23.10
2018-03-21T10:00:30.527Z,23.00
2018-03-21T10:02:58.000Z,23.20
2018-03-21T10:05:25.480Z,22.60
2018-03-21T10:07:52.936Z,22.30
2018-03-21T10:10:20.396Z,22.00
2018-03-21T10:12:47.857Z,23.60
2018-03-21T10:15:15.320Z,24.90
2018-03-21T10:17:42.787Z,24.80
2018-03-21T10:20:10.267Z,23.30
2018-03-21T10:22:37.721Z,24.60
2018-03-21T10:25:05.195Z,26.00
2018-03-21T10:27:33.431Z,26.10
2018-03-21T10:30:00.905Z,26.10
2018-03-21T10:32:28.357Z,24.60
2018-03-21T10:34:55.832Z,24.50
2018-03-21T10:37:24.064Z,23.80
2018-03-21T10:39:51.516Z,23.70
2018-03-21T10:42:18.984Z,24.30
2018-03-21T10:44:46.650Z,24.30
2018-03-21T10:47:14.127Z,23.20
2018-03-21T10:49:41.580Z,22.00
2018-03-21T10:52:09.052Z,23.20
2018-03-21T10:54:37.284Z,22.60
2018-03-21T10:57:04.801Z,22.10
2018-03-21T10:59:33.024Z,21.80
2018-03-21T11:02:06.232Z,21.70
2018-03-21T11:04:34.393Z,25.60
2018-03-21T11:07:02.104Z,25.60
2018-03-21T11:09:30.325Z,24.20
2018-03-21T11:11:57.829Z,24.30
2018-03-21T11:14:25.274Z,22.70
2018-03-21T11:16:52.744Z,24.00
2018-03-21T11:19:21.031Z,23.30
2018-03-21T11:21:48.451Z,23.10
2018-03-21T11:24:15.908Z,23.60
2018-03-21T11:26:43.377Z,21.40
2018-03-21T11:29:10.829Z,23.10
2018-03-21T11:31:38.291Z,23.00
2018-03-21T11:34:05.797Z,22.40
2018-03-21T11:36:34.023Z,21.40
2018-03-21T11:39:01.532Z,21.40
2018-03-21T11:41:28.976Z,22.30
2018-03-21T11:43:56.443Z,24.10
2018-03-21T11:46:23.921Z,21.00
2018-03-21T11:48:51.379Z,21.60
2018-03-21T11:51:18.840Z,23.90
2018-03-21T11:53:46.303Z,21.60
2018-03-21T11:56:13.778Z,20.10
2018-03-21T11:58:41.252Z,23.40
2018-03-21T12:01:08.700Z,22.10
2018-03-21T12:03:36.177Z,21.20
2018-03-21T12:06:04.420Z,20.90
2018-03-21T12:08:31.949Z,20.70
2018-03-21T12:11:00.149Z,22.50
2018-03-21T12:13:27.632Z,22.50
2018-03-21T12:15:55.093Z,21.60
2018-03-21T12:18:22.561Z,22.00
2018-03-21T12:20:50.787Z,22.60
2018-03-21T12:23:18.256Z,22.60
2018-03-21T12:25:45.713Z,23.00
2018-03-21T12:28:13.202Z,20.20
2018-03-21T12:30:40.655Z,21.80
2018-03-21T12:33:08.120Z,20.60
2018-03-21T12:35:36.360Z,20.70
2018-03-21T12:38:03.819Z,21.30
2018-03-21T12:40:31.272Z,23.00
2018-03-21T12:42:58.750Z,22.90
2018-03-21T12:45:26.200Z,23.90
2018-03-21T12:47:53.664Z,23.90
2018-03-21T12:50:21.117Z,22.80
2018-03-21T12:52:48.587Z,23.10
2018-03-21T12:55:16.813Z,22.60
2018-03-21T12:57:44.276Z,22.50
2018-03-21T13:00:11.732Z,24.50
2018-03-21T13:02:39.192Z,25.50
2018-03-21T13:05:06.646Z,24.50
2018-03-21T13:07:34.104Z,23.70
2018-03-21T13:10:01.551Z,24.10
2018-03-21T13:12:29.017Z,25.30
2018-03-21T13:14:56.484Z,24.70
2018-03-21T13:17:23.968Z,24.90
2018-03-21T13:19:51.435Z,24.30
2018-03-21T13:22:19.712Z,23.80
2018-03-21T13:24:47.224Z,24.20
2018-03-21T13:27:14.676Z,24.80
2018-03-21T13:29:42.149Z,25.30
2018-03-21T13:32:09.621Z,24.30
2018-03-21T13:34:37.075Z,24.30
2018-03-21T13:37:04.536Z,25.20
2018-03-21T13:39:31.999Z,24.50
2018-03-21T13:41:59.451Z,23.40
2018-03-21T13:44:26.921Z,22.50
2018-03-21T13:46:54.365Z,23.70
2018-03-21T13:49:21.847Z,23.90
2018-03-21T13:51:49.305Z,25.00
2018-03-21T13:54:16.768Z,24.70
2018-03-21T13:56:45.000Z,24.90
2018-03-21T13:59:12.465Z,24.90
2018-03-21T14:01:39.919Z,24.40
2018-03-21T14:04:07.384Z,22.90
2018-03-21T14:06:34.848Z,24.20
2018-03-21T14:09:02.347Z,24.20
2018-03-21T14:11:29.812Z,24.00
2018-03-21T14:13:57.272Z,25.30
2018-03-21T14:16:24.750Z,27.20
2018-03-21T14:18:52.220Z,28.60
2018-03-21T14:21:19.684Z,29.60
2018-03-21T14:23:47.145Z,26.80
2018-03-21T14:26:14.600Z,23.50
2018-03-21T14:28:42.064Z,23.90
2018-03-21T14:31:09.540Z,23.50
2018-03-21T14:33:37.025Z,22.50
2018-03-21T14:36:04.479Z,22.50
2018-03-21T14:38:32.716Z,24.10
2018-03-21T14:41:00.168Z,24.10
2018-03-21T14:43:27.632Z,24.60
2018-03-21T14:45:55.105Z,25.60
2018-03-21T14:48:22.560Z,24.90
2018-03-21T14:50:50.017Z,25.20
2018-03-21T14:53:17.497Z,25.10
2018-03-21T14:55:45.720Z,24.60
2018-03-21T14:58:13.175Z,24.50
2018-03-21T15:00:40.648Z,23.10
2018-03-21T15:03:08.772Z,25.30
2018-03-21T15:05:36.238Z,25.40
2018-03-21T15:08:03.688Z,25.50
2018-03-21T15:10:31.165Z,25.30
2018-03-21T15:12:58.622Z,27.10
2018-03-21T15:15:26.095Z,26.60
2018-03-21T15:17:53.576Z,26.10
2018-03-21T15:20:21.040Z,25.40
2018-03-21T15:22:48.514Z,24.40
2018-03-21T15:25:16.747Z,24.50
2018-03-21T15:27:44.208Z,24.50
2018-03-21T15:30:11.668Z,24.50
2018-03-21T15:32:39.135Z,24.30
2018-03-21T15:35:06.657Z,25.30
2018-03-21T15:37:34.108Z,25.70
2018-03-21T15:40:01.576Z,25.50
2018-03-21T15:42:29.032Z,26.10
2018-03-21T15:44:56.506Z,25.70
2018-03-21T15:47:23.961Z,25.90
2018-03-21T15:49:51.487Z,27.00
2018-03-21T15:52:18.935Z,26.00
2018-03-21T15:54:46.405Z,26.20
2018-03-21T15:57:13.860Z,26.30
2018-03-21T15:59:41.324Z,25.50
2018-03-21T16:02:08.776Z,24.80
2018-03-21T16:04:36.247Z,25.50
2018-03-21T16:07:03.705Z,25.30
2018-03-21T16:09:31.160Z,24.10
2018-03-21T16:11:58.624Z,24.80
2018-03-21T16:14:26.084Z,25.10
2018-03-21T16:16:53.570Z,25.10
2018-03-21T16:19:21.000Z,26.30
2018-03-21T16:21:48.456Z,26.80
2018-03-21T16:24:15.923Z,26.70
2018-03-21T16:26:43.379Z,26.60
2018-03-21T16:29:11.616Z,26.90
2018-03-21T16:31:39.073Z,26.80
2018-03-21T16:34:06.525Z,26.90
2018-03-21T16:36:34.752Z,27.40
2018-03-21T16:39:02.206Z,27.40
2018-03-21T16:41:29.668Z,26.70
2018-03-21T16:43:57.139Z,28.30
2018-03-21T16:46:24.613Z,27.30
2018-03-21T16:48:52.840Z,27.50
2018-03-21T16:51:20.297Z,27.30
2018-03-21T16:53:47.747Z,27.60
2018-03-21T16:56:15.209Z,27.20
2018-03-21T16:58:42.663Z,27.90
2018-03-21T17:01:10.121Z,28.40
2018-03-21T17:03:37.612Z,28.90
2018-03-21T17:06:05.047Z,28.30
2018-03-21T17:08:32.495Z,28.30
2018-03-21T17:10:59.953Z,30.00
2018-03-21T17:13:27.410Z,30.70
2018-03-21T17:15:54.892Z,30.40
2018-03-21T17:18:22.348Z,29.10
2018-03-21T17:20:49.817Z,29.40
2018-03-21T17:23:17.277Z,28.90
2018-03-21T17:25:45.507Z,29.00
2018-03-21T17:28:12.963Z,29.00
2018-03-21T17:30:40.426Z,28.80
2018-03-21T17:33:08.325Z,29.10
2018-03-21T17:35:35.805Z,29.00
2018-03-21T17:38:03.257Z,30.00
2018-03-21T17:40:30.725Z,30.70
2018-03-21T17:42:58.945Z,31.60
2018-03-21T17:45:26.400Z,31.50
2018-03-21T17:47:53.858Z,31.00
2018-03-21T17:50:21.316Z,30.50
2018-03-21T17:52:48.768Z,30.30
2018-03-21T17:55:16.228Z,30.90
2018-03-21T17:57:43.684Z,31.20
2018-03-21T18:00:11.237Z,34.00
2018-03-21T18:02:38.687Z,37.60
2018-03-21T18:05:06.135Z,38.30
2018-03-21T18:07:33.606Z,38.30
2018-03-21T18:10:01.058Z,40.60
2018-03-21T18:12:28.524Z,41.70
2018-03-21T18:14:55.978Z,40.90
2018-03-21T18:17:23.432Z,39.00
2018-03-21T18:19:50.885Z,39.20
2018-03-21T18:22:18.343Z,40.70
2018-03-21T18:24:45.805Z,42.40
2018-03-21T18:27:13.265Z,44.00
2018-03-21T18:29:40.712Z,40.40
2018-03-21T18:32:08.193Z,39.30
2018-03-21T18:34:35.640Z,40.10
2018-03-21T18:37:03.115Z,40.40
2018-03-21T18:39:30.569Z,44.10
2018-03-21T18:41:58.038Z,44.10
2018-03-21T18:44:25.554Z,43.20
2018-03-21T18:46:53.781Z,44.70
2018-03-21T18:49:21.240Z,44.70
2018-03-21T18:51:48.697Z,45.50
2018-03-21T18:54:16.157Z,45.90
2018-03-21T18:56:43.633Z,45.80
2018-03-21T18:59:11.088Z,45.70
2018-03-21T19:01:38.556Z,46.60
2018-03-21T19:04:06.778Z,46.10
2018-03-21T19:06:34.245Z,46.10
2018-03-21T19:09:01.757Z,45.60
2018-03-21T19:11:29.980Z,46.10
2018-03-21T19:13:57.436Z,46.10
2018-03-21T19:16:24.892Z,46.80
2018-03-21T19:18:52.342Z,46.00
2018-03-21T19:21:19.799Z,47.10
2018-03-21T19:23:47.252Z,49.20
2018-03-21T19:26:14.725Z,48.10
2018-03-21T19:28:42.184Z,49.20
2018-03-21T19:31:09.640Z,50.20
2018-03-21T19:33:37.106Z,50.20
2018-03-21T19:36:04.555Z,50.70
2018-03-21T19:38:32.027Z,50.30
2018-03-21T19:40:59.473Z,50.70
2018-03-21T19:43:26.942Z,50.90
2018-03-21T19:45:54.456Z,50.50
2018-03-21T19:48:21.865Z,50.40
2018-03-21T19:50:49.329Z,51.00
2018-03-21T19:53:16.795Z,51.00
2018-03-21T19:55:45.021Z,51.50
2018-03-21T19:58:12.487Z,51.30
2018-03-21T20:00:40.709Z,51.60
2018-03-21T20:03:08.930Z,52.10
2018-03-21T20:05:36.444Z,52.00
2018-03-21T20:08:03.869Z,52.00
2018-03-21T20:10:31.328Z,52.30
2018-03-21T20:12:58.793Z,52.50
2018-03-21T20:15:26.241Z,52.60
2018-03-21T20:17:53.868Z,52.20
2018-03-21T20:20:21.357Z,52.50
2018-03-21T20:22:48.829Z,53.60
2018-03-21T20:25:16.340Z,52.20
2018-03-21T20:27:43.797Z,52.70
2018-03-21T20:30:11.258Z,51.80
2018-03-21T20:32:38.739Z,52.30
2018-03-21T20:35:06.192Z,51.80
2018-03-21T20:37:33.653Z,53.30
2018-03-21T20:40:01.113Z,54.40
2018-03-21T20:42:28.567Z,54.80
2018-03-21T20:44:56.034Z,55.40
2018-03-21T20:47:23.525Z,55.70
2018-03-21T20:49:51.759Z,55.50
2018-03-21T20:52:19.216Z,55.40
2018-03-21T20:54:46.701Z,56.00
2018-03-21T20:57:14.156Z,56.90
2018-03-21T20:59:41.620Z,56.40
2018-03-21T21:02:09.077Z,57.30
2018-03-21T21:04:36.556Z,57.30
2018-03-21T21:07:04.787Z,57.00
2018-03-21T21:09:32.265Z,57.00
2018-03-21T21:11:59.724Z,57.10
2018-03-21T21:14:27.196Z,58.50
2018-03-21T21:16:55.423Z,57.30
2018-03-21T21:19:22.907Z,57.30
2018-03-21T21:21:50.377Z,57.60
2018-03-21T21:24:17.839Z,57.50
2018-03-21T21:26:46.076Z,58.00
2018-03-21T21:29:13.554Z,58.00
2018-03-21T21:31:41.017Z,57.30
2018-03-21T21:34:08.492Z,59.20
2018-03-21T21:36:36.716Z,59.00
2018-03-21T21:39:04.209Z,58.90
2018-03-21T21:41:31.665Z,58.30
2018-03-21T21:43:59.122Z,58.70
2018-03-21T21:46:26.609Z,59.30
2018-03-21T21:48:54.837Z,59.40
2018-03-21T21:51:22.323Z,59.40
2018-03-21T21:53:49.773Z,59.00
2018-03-21T21:56:17.266Z,59.40
2018-03-21T21:58:44.725Z,59.50
2018-03-21T22:01:12.200Z,59.60
2018-03-21T22:03:39.657Z,59.30
2018-03-21T22:06:07.125Z,59.70
2018-03-21T22:08:34.579Z,60.20
2018-03-21T22:11:02.048Z,60.20
2018-03-21T22:13:29.518Z,60.70
2018-03-21T22:15:56.985Z,60.90
2018-03-21T22:18:24.441Z,61.00
2018-03-21T22:20:51.912Z,62.00
2018-03-21T22:23:19.371Z,60.50
2018-03-21T22:25:46.845Z,61.00
2018-03-21T22:28:15.066Z,60.60
2018-03-21T22:30:42.544Z,60.60
2018-03-21T22:33:10.012Z,60.40
2018-03-21T22:35:37.469Z,61.20
2018-03-21T22:38:04.936Z,60.40
2018-03-21T22:40:33.169Z,61.30
2018-03-21T22:43:00.641Z,61.30
2018-03-21T22:45:28.091Z,61.00
2018-03-21T22:47:55.565Z,61.10
2018-03-21T22:50:23.018Z,62.80
2018-03-21T22:52:50.497Z,61.90
2018-03-21T22:55:17.955Z,62.40
2018-03-21T22:57:46.196Z,61.20
2018-03-21T23:00:13.652Z,61.00
2018-03-21T23:02:41.131Z,61.10
2018-03-21T23:05:08.594Z,60.60
2018-03-21T23:07:36.061Z,60.00
2018-03-21T23:10:04.295Z,59.60
2018-03-21T23:12:31.768Z,59.60
2018-03-21T23:14:59.250Z,60.30
2018-03-21T23:17:26.712Z,60.20
2018-03-21T23:19:54.166Z,60.10
2018-03-21T23:22:21.620Z,60.60
2018-03-21T23:24:49.120Z,61.20
2018-03-21T23:27:16.564Z,60.20
2018-03-21T23:29:44.039Z,61.60
2018-03-21T23:32:11.502Z,61.50
2018-03-21T23:34:38.985Z,61.80
2018-03-21T23:37:06.464Z,62.20
2018-03-21T23:39:33.950Z,61.30
2018-03-21T23:42:02.174Z,61.00
2018-03-21T23:44:29.646Z,61.00
2018-03-21T23:46:57.109Z,61.60
2018-03-21T23:49:24.577Z,61.30
2018-03-21T23:51:52.050Z,61.70
2018-03-21T23:54:20.296Z,61.50
2018-03-21T23:56:47.762Z,61.40
2018-03-21T23:59:15.237Z,60.80
